sensor_id;sensor_type;location;lat;lon;timestamp;temperature;humidity
41928;DHT22;27616;51.420;6.788;2023-02-15T00:01:19;3.20;99.90
41928;DHT22;27616;51.420;6.788;2023-02-15T00:03:44;3.20;99.90
41928;DHT22;27616;51.420;6.788;2023-02-15T00:06:12;3.20;99.90
41928;DHT22;27616;51.420;6.788;2023-02-15T00:08:38;3.20;99.90
41928;DHT22;27616;51.420;6.788;2023-02-15T00:11:08;3.20;99.90
41928;DHT22;27616;51.420;6.788;2023-02-15T00:13:35;3.20;99.90
41928;DHT22;27616;51.420;6.788;2023-02-15T00:16:07;3.20;99.90
41928;DHT22;27616;51.420;6.788;2023-02-15T00:18:33;3.20;99.90
41928;DHT22;27616;51.420;6.788;2023-02-15T00:21:04;3.20;99.90
41928;DHT22;27616;51.420;6.788;2023-02-15T00:23:30;3.20;99.90
41928;DHT22;27616;51.420;6.788;2023-02-15T00:28:30;3.30;99.90
41928;DHT22;27616;51.420;6.788;2023-02-15T00:31:08;3.30;99.90
41928;DHT22;27616;51.420;6.788;2023-02-15T00:33:35;3.30;99.90
41928;DHT22;27616;51.420;6.788;2023-02-15T00:36:01;3.30;99.90
41928;DHT22;27616;51.420;6.788;2023-02-15T00:38:28;3.30;99.90
41928;DHT22;27616;51.420;6.788;2023-02-15T00:40:55;3.30;99.90
41928;DHT22;27616;51.420;6.788;2023-02-15T00:43:21;3.30;99.90
41928;DHT22;27616;51.420;6.788;2023-02-15T00:45:47;3.40;99.90
41928;DHT22;27616;51.420;6.788;2023-02-15T00:48:13;3.40;99.90
41928;DHT22;27616;51.420;6.788;2023-02-15T00:50:39;3.40;99.90
41928;DHT22;27616;51.420;6.788;2023-02-15T00:53:05;3.40;99.90
41928;DHT22;27616;51.420;6.788;2023-02-15T00:55:31;3.40;99.90
41928;DHT22;27616;51.420;6.788;2023-02-15T00:57:57;3.40;99.90
41928;DHT22;27616;51.420;6.788;2023-02-15T01:00:23;3.40;99.90
41928;DHT22;27616;51.420;6.788;2023-02-15T01:02:48;3.40;99.90
41928;DHT22;27616;51.420;6.788;2023-02-15T01:05:14;3.40;99.90
41928;DHT22;27616;51.420;6.788;2023-02-15T01:07:40;3.30;99.90
41928;DHT22;27616;51.420;6.788;2023-02-15T01:10:06;3.30;99.90
41928;DHT22;27616;51.420;6.788;2023-02-15T01:12:33;3.30;99.90
41928;DHT22;27616;51.420;6.788;2023-02-15T01:14:58;3.30;99.90
41928;DHT22;27616;51.420;6.788;2023-02-15T01:17:24;3.30;99.90
41928;DHT22;27616;51.420;6.788;2023-02-15T01:19:50;3.30;99.90
41928;DHT22;27616;51.420;6.788;2023-02-15T01:22:18;3.30;99.90
41928;DHT22;27616;51.420;6.788;2023-02-15T01:24:44;3.20;99.90
41928;DHT22;27616;51.420;6.788;2023-02-15T01:27:10;3.20;99.90
41928;DHT22;27616;51.420;6.788;2023-02-15T01:29:36;3.20;99.90
41928;DHT22;27616;51.420;6.788;2023-02-15T01:32:02;3.20;99.90
41928;DHT22;27616;51.420;6.788;2023-02-15T01:34:29;3.20;99.90
41928;DHT22;27616;51.420;6.788;2023-02-15T01:36:56;3.20;99.90
41928;DHT22;27616;51.420;6.788;2023-02-15T01:39:22;3.20;99.90
41928;DHT22;27616;51.420;6.788;2023-02-15T01:41:49;3.20;99.90
41928;DHT22;27616;51.420;6.788;2023-02-15T01:49:48;3.10;99.90
41928;DHT22;27616;51.420;6.788;2023-02-15T01:52:19;3.10;99.90
41928;DHT22;27616;51.420;6.788;2023-02-15T01:54:46;3.10;99.90
41928;DHT22;27616;51.420;6.788;2023-02-15T01:57:18;3.00;99.90
41928;DHT22;27616;51.420;6.788;2023-02-15T01:59:48;3.00;99.90
41928;DHT22;27616;51.420;6.788;2023-02-15T02:02:18;3.00;99.90
41928;DHT22;27616;51.420;6.788;2023-02-15T02:04:48;2.90;99.90
41928;DHT22;27616;51.420;6.788;2023-02-15T02:07:19;2.90;99.90
41928;DHT22;27616;51.420;6.788;2023-02-15T02:09:46;2.90;99.90
41928;DHT22;27616;51.420;6.788;2023-02-15T02:12:12;2.80;99.90
41928;DHT22;27616;51.420;6.788;2023-02-15T02:14:39;2.80;99.90
41928;DHT22;27616;51.420;6.788;2023-02-15T02:17:22;2.70;99.90
41928;DHT22;27616;51.420;6.788;2023-02-15T02:25:31;2.60;99.90
41928;DHT22;27616;51.420;6.788;2023-02-15T02:38:58;2.50;99.90
41928;DHT22;27616;51.420;6.788;2023-02-15T02:41:32;2.50;99.90
41928;DHT22;27616;51.420;6.788;2023-02-15T02:44:09;2.50;99.90
41928;DHT22;27616;51.420;6.788;2023-02-15T02:52:03;2.40;99.90
41928;DHT22;27616;51.420;6.788;2023-02-15T02:54:30;2.40;99.90
41928;DHT22;27616;51.420;6.788;2023-02-15T02:56:59;2.40;99.90
41928;DHT22;27616;51.420;6.788;2023-02-15T02:59:31;2.40;99.90
41928;DHT22;27616;51.420;6.788;2023-02-15T03:02:11;2.40;99.90
41928;DHT22;27616;51.420;6.788;2023-02-15T03:04:41;2.40;99.90
41928;DHT22;27616;51.420;6.788;2023-02-15T03:07:14;2.40;99.90
41928;DHT22;27616;51.420;6.788;2023-02-15T03:09:46;2.30;99.90
41928;DHT22;27616;51.420;6.788;2023-02-15T03:14:48;2.40;99.90
41928;DHT22;27616;51.420;6.788;2023-02-15T03:17:17;2.30;99.90
41928;DHT22;27616;51.420;6.788;2023-02-15T03:19:45;2.30;99.90
41928;DHT22;27616;51.420;6.788;2023-02-15T03:22:28;2.30;99.90
41928;DHT22;27616;51.420;6.788;2023-02-15T03:25:59;2.30;99.90
41928;DHT22;27616;51.420;6.788;2023-02-15T03:27:55;2.30;99.90
41928;DHT22;27616;51.420;6.788;2023-02-15T03:30:24;2.30;99.90
41928;DHT22;27616;51.420;6.788;2023-02-15T03:32:50;2.30;99.90
41928;DHT22;27616;51.420;6.788;2023-02-15T03:35:19;2.30;99.90
41928;DHT22;27616;51.420;6.788;2023-02-15T03:37:49;2.20;99.90
41928;DHT22;27616;51.420;6.788;2023-02-15T03:40:20;2.20;99.90
41928;DHT22;27616;51.420;6.788;2023-02-15T03:45:40;2.20;99.90
41928;DHT22;27616;51.420;6.788;2023-02-15T03:48:44;2.20;99.90
41928;DHT22;27616;51.420;6.788;2023-02-15T03:51:18;2.20;99.90
41928;DHT22;27616;51.420;6.788;2023-02-15T03:57:02;2.20;99.90
41928;DHT22;27616;51.420;6.788;2023-02-15T03:59:46;2.10;99.90
41928;DHT22;27616;51.420;6.788;2023-02-15T04:05:42;2.10;99.90
41928;DHT22;27616;51.420;6.788;2023-02-15T04:08:09;2.10;99.90
41928;DHT22;27616;51.420;6.788;2023-02-15T04:10:35;2.10;99.90
41928;DHT22;27616;51.420;6.788;2023-02-15T04:13:31;2.10;99.90
41928;DHT22;27616;51.420;6.788;2023-02-15T04:15:57;2.10;99.90
41928;DHT22;27616;51.420;6.788;2023-02-15T04:18:42;2.10;99.90
41928;DHT22;27616;51.420;6.788;2023-02-15T04:21:29;2.10;99.90
41928;DHT22;27616;51.420;6.788;2023-02-15T04:24:13;2.00;99.90
41928;DHT22;27616;51.420;6.788;2023-02-15T04:26:58;2.00;99.90
41928;DHT22;27616;51.420;6.788;2023-02-15T04:29:26;2.00;99.90
41928;DHT22;27616;51.420;6.788;2023-02-15T04:31:53;2.10;99.90
41928;DHT22;27616;51.420;6.788;2023-02-15T04:34:18;2.10;99.90
41928;DHT22;27616;51.420;6.788;2023-02-15T04:36:44;2.00;99.90
41928;DHT22;27616;51.420;6.788;2023-02-15T04:39:13;2.00;99.90
41928;DHT22;27616;51.420;6.788;2023-02-15T04:41:40;2.00;99.90
41928;DHT22;27616;51.420;6.788;2023-02-15T04:44:06;2.00;99.90
41928;DHT22;27616;51.420;6.788;2023-02-15T04:46:31;2.00;99.90
41928;DHT22;27616;51.420;6.788;2023-02-15T04:48:57;2.00;99.90
41928;DHT22;27616;51.420;6.788;2023-02-15T04:51:23;2.00;99.90
41928;DHT22;27616;51.420;6.788;2023-02-15T04:53:49;2.00;99.90
41928;DHT22;27616;51.420;6.788;2023-02-15T04:56:15;2.00;99.90
41928;DHT22;27616;51.420;6.788;2023-02-15T04:58:41;2.00;99.90
41928;DHT22;27616;51.420;6.788;2023-02-15T05:01:07;2.00;99.90
41928;DHT22;27616;51.420;6.788;2023-02-15T05:03:33;1.90;99.90
41928;DHT22;27616;51.420;6.788;2023-02-15T05:05:59;1.90;99.90
41928;DHT22;27616;51.420;6.788;2023-02-15T05:08:25;1.90;99.90
41928;DHT22;27616;51.420;6.788;2023-02-15T05:10:51;1.90;99.90
41928;DHT22;27616;51.420;6.788;2023-02-15T05:13:16;1.90;99.90
41928;DHT22;27616;51.420;6.788;2023-02-15T05:15:47;1.90;99.90
41928;DHT22;27616;51.420;6.788;2023-02-15T05:18:15;1.90;99.90
41928;DHT22;27616;51.420;6.788;2023-02-15T05:20:41;1.90;99.90
41928;DHT22;27616;51.420;6.788;2023-02-15T05:23:06;1.90;99.90
41928;DHT22;27616;51.420;6.788;2023-02-15T05:25:32;1.90;99.90
41928;DHT22;27616;51.420;6.788;2023-02-15T05:28:16;1.90;99.90
41928;DHT22;27616;51.420;6.788;2023-02-15T05:31:08;1.80;99.90
41928;DHT22;27616;51.420;6.788;2023-02-15T05:33:35;1.90;99.90
41928;DHT22;27616;51.420;6.788;2023-02-15T05:36:02;1.90;99.90
41928;DHT22;27616;51.420;6.788;2023-02-15T05:38:28;1.90;99.90
41928;DHT22;27616;51.420;6.788;2023-02-15T05:40:54;1.90;99.90
41928;DHT22;27616;51.420;6.788;2023-02-15T05:43:20;1.90;99.90
41928;DHT22;27616;51.420;6.788;2023-02-15T05:45:47;2.00;99.90
41928;DHT22;27616;51.420;6.788;2023-02-15T05:48:14;2.00;99.90
41928;DHT22;27616;51.420;6.788;2023-02-15T05:50:40;2.00;99.90
41928;DHT22;27616;51.420;6.788;2023-02-15T05:53:06;2.00;99.90
41928;DHT22;27616;51.420;6.788;2023-02-15T05:55:32;2.00;99.90
41928;DHT22;27616;51.420;6.788;2023-02-15T05:57:57;2.00;99.90
41928;DHT22;27616;51.420;6.788;2023-02-15T06:00:23;2.00;99.90
41928;DHT22;27616;51.420;6.788;2023-02-15T06:02:49;2.00;99.90
41928;DHT22;27616;51.420;6.788;2023-02-15T06:05:15;2.00;99.90
41928;DHT22;27616;51.420;6.788;2023-02-15T06:07:43;2.00;99.90
41928;DHT22;27616;51.420;6.788;2023-02-15T06:10:10;2.00;99.90
41928;DHT22;27616;51.420;6.788;2023-02-15T06:12:36;2.00;99.90
41928;DHT22;27616;51.420;6.788;2023-02-15T06:15:03;2.00;99.90
41928;DHT22;27616;51.420;6.788;2023-02-15T06:17:29;2.00;99.90
41928;DHT22;27616;51.420;6.788;2023-02-15T06:19:54;2.00;99.90
41928;DHT22;27616;51.420;6.788;2023-02-15T06:22:20;2.00;99.90
41928;DHT22;27616;51.420;6.788;2023-02-15T06:24:46;2.10;99.90
41928;DHT22;27616;51.420;6.788;2023-02-15T06:27:12;2.10;99.90
41928;DHT22;27616;51.420;6.788;2023-02-15T06:29:38;2.10;99.90
41928;DHT22;27616;51.420;6.788;2023-02-15T06:32:04;2.10;99.90
41928;DHT22;27616;51.420;6.788;2023-02-15T06:34:30;2.20;99.90
41928;DHT22;27616;51.420;6.788;2023-02-15T06:36:56;2.30;99.90
41928;DHT22;27616;51.420;6.788;2023-02-15T06:39:22;2.30;99.90
41928;DHT22;27616;51.420;6.788;2023-02-15T06:41:47;2.30;99.90
41928;DHT22;27616;51.420;6.788;2023-02-15T06:44:13;2.30;99.90
41928;DHT22;27616;51.420;6.788;2023-02-15T06:46:39;2.30;99.90
41928;DHT22;27616;51.420;6.788;2023-02-15T06:49:05;2.30;99.90
41928;DHT22;27616;51.420;6.788;2023-02-15T06:51:30;2.30;99.90
41928;DHT22;27616;51.420;6.788;2023-02-15T06:53:56;2.30;99.90
41928;DHT22;27616;51.420;6.788;2023-02-15T06:56:22;2.30;99.90
41928;DHT22;27616;51.420;6.788;2023-02-15T06:58:48;2.30;99.90
41928;DHT22;27616;51.420;6.788;2023-02-15T07:01:18;2.30;99.90
41928;DHT22;27616;51.420;6.788;2023-02-15T07:03:44;2.30;99.90
41928;DHT22;27616;51.420;6.788;2023-02-15T07:06:10;2.30;99.90
41928;DHT22;27616;51.420;6.788;2023-02-15T07:08:37;2.30;99.90
41928;DHT22;27616;51.420;6.788;2023-02-15T07:11:04;2.20;99.90
41928;DHT22;27616;51.420;6.788;2023-02-15T07:13:49;2.20;99.90
41928;DHT22;27616;51.420;6.788;2023-02-15T07:16:15;2.20;99.90
41928;DHT22;27616;51.420;6.788;2023-02-15T07:18:41;2.20;99.90
41928;DHT22;27616;51.420;6.788;2023-02-15T07:21:07;2.30;99.90
41928;DHT22;27616;51.420;6.788;2023-02-15T07:23:36;2.30;99.90
41928;DHT22;27616;51.420;6.788;2023-02-15T07:26:04;2.40;99.90
41928;DHT22;27616;51.420;6.788;2023-02-15T07:28:30;2.40;99.90
41928;DHT22;27616;51.420;6.788;2023-02-15T07:30:56;2.40;99.90
41928;DHT22;27616;51.420;6.788;2023-02-15T07:33:23;2.50;99.90
41928;DHT22;27616;51.420;6.788;2023-02-15T07:35:54;2.50;99.90
41928;DHT22;27616;51.420;6.788;2023-02-15T07:38:21;2.50;99.90
41928;DHT22;27616;51.420;6.788;2023-02-15T07:40:47;2.60;99.90
41928;DHT22;27616;51.420;6.788;2023-02-15T07:43:13;2.70;99.90
41928;DHT22;27616;51.420;6.788;2023-02-15T07:45:39;2.80;99.90
41928;DHT22;27616;51.420;6.788;2023-02-15T07:48:05;2.80;99.90
41928;DHT22;27616;51.420;6.788;2023-02-15T07:50:31;2.90;99.90
41928;DHT22;27616;51.420;6.788;2023-02-15T07:52:57;2.90;99.90
41928;DHT22;27616;51.420;6.788;2023-02-15T07:55:23;3.00;99.90
41928;DHT22;27616;51.420;6.788;2023-02-15T07:57:50;3.20;99.90
41928;DHT22;27616;51.420;6.788;2023-02-15T08:00:18;3.30;99.90
41928;DHT22;27616;51.420;6.788;2023-02-15T08:02:49;3.40;99.90
41928;DHT22;27616;51.420;6.788;2023-02-15T08:05:35;3.40;99.90
41928;DHT22;27616;51.420;6.788;2023-02-15T08:08:01;3.50;99.90
41928;DHT22;27616;51.420;6.788;2023-02-15T08:10:27;3.60;99.90
41928;DHT22;27616;51.420;6.788;2023-02-15T08:13:13;3.70;99.90
41928;DHT22;27616;51.420;6.788;2023-02-15T08:15:38;3.90;99.90
41928;DHT22;27616;51.420;6.788;2023-02-15T08:18:04;4.10;99.90
41928;DHT22;27616;51.420;6.788;2023-02-15T08:20:30;4.30;99.90
41928;DHT22;27616;51.420;6.788;2023-02-15T08:22:56;4.50;99.90
41928;DHT22;27616;51.420;6.788;2023-02-15T08:25:22;4.80;99.90
41928;DHT22;27616;51.420;6.788;2023-02-15T08:27:49;4.90;99.90
41928;DHT22;27616;51.420;6.788;2023-02-15T08:30:16;5.10;99.90
41928;DHT22;27616;51.420;6.788;2023-02-15T08:32:41;5.20;99.90
41928;DHT22;27616;51.420;6.788;2023-02-15T08:35:07;5.20;99.90
41928;DHT22;27616;51.420;6.788;2023-02-15T08:37:33;5.20;99.90
41928;DHT22;27616;51.420;6.788;2023-02-15T08:39:58;5.20;99.90
41928;DHT22;27616;51.420;6.788;2023-02-15T08:42:24;5.20;99.90
41928;DHT22;27616;51.420;6.788;2023-02-15T08:44:50;5.30;99.90
41928;DHT22;27616;51.420;6.788;2023-02-15T08:47:17;5.40;99.90
41928;DHT22;27616;51.420;6.788;2023-02-15T08:49:42;5.60;99.90
41928;DHT22;27616;51.420;6.788;2023-02-15T08:52:08;5.70;99.90
41928;DHT22;27616;51.420;6.788;2023-02-15T08:54:34;6.00;99.90
41928;DHT22;27616;51.420;6.788;2023-02-15T08:56:59;6.20;99.90
41928;DHT22;27616;51.420;6.788;2023-02-15T08:59:25;6.40;99.90
41928;DHT22;27616;51.420;6.788;2023-02-15T09:01:52;6.60;99.90
41928;DHT22;27616;51.420;6.788;2023-02-15T09:04:19;6.80;99.90
41928;DHT22;27616;51.420;6.788;2023-02-15T09:06:47;7.00;99.90
41928;DHT22;27616;51.420;6.788;2023-02-15T09:09:13;7.30;99.90
41928;DHT22;27616;51.420;6.788;2023-02-15T09:11:40;7.50;99.90
41928;DHT22;27616;51.420;6.788;2023-02-15T09:14:09;7.80;99.90
41928;DHT22;27616;51.420;6.788;2023-02-15T09:16:39;7.90;99.90
41928;DHT22;27616;51.420;6.788;2023-02-15T09:19:05;8.20;99.90
41928;DHT22;27616;51.420;6.788;2023-02-15T09:21:33;8.40;99.90
41928;DHT22;27616;51.420;6.788;2023-02-15T09:24:02;8.60;99.90
41928;DHT22;27616;51.420;6.788;2023-02-15T09:26:30;8.60;99.90
41928;DHT22;27616;51.420;6.788;2023-02-15T09:28:58;9.00;99.90
41928;DHT22;27616;51.420;6.788;2023-02-15T09:31:27;9.50;99.90
41928;DHT22;27616;51.420;6.788;2023-02-15T09:33:53;10.00;99.90
41928;DHT22;27616;51.420;6.788;2023-02-15T09:36:20;10.50;99.90
41928;DHT22;27616;51.420;6.788;2023-02-15T09:39:03;10.90;98.20
41928;DHT22;27616;51.420;6.788;2023-02-15T10:17:33;16.90;77.60
41928;DHT22;27616;51.420;6.788;2023-02-15T10:28:27;17.30;69.50
41928;DHT22;27616;51.420;6.788;2023-02-15T10:31:12;17.10;68.70
41928;DHT22;27616;51.420;6.788;2023-02-15T10:33:41;17.10;68.30
41928;DHT22;27616;51.420;6.788;2023-02-15T10:39:33;16.80;69.50
41928;DHT22;27616;51.420;6.788;2023-02-15T10:45:19;17.50;67.30
41928;DHT22;27616;51.420;6.788;2023-02-15T10:47:50;18.00;65.30
41928;DHT22;27616;51.420;6.788;2023-02-15T10:52:51;18.70;63.00
41928;DHT22;27616;51.420;6.788;2023-02-15T10:55:37;18.70;62.20
41928;DHT22;27616;51.420;6.788;2023-02-15T11:01:03;18.60;62.10
41928;DHT22;27616;51.420;6.788;2023-02-15T11:06:32;18.40;61.60
41928;DHT22;27616;51.420;6.788;2023-02-15T11:09:05;18.30;62.60
41928;DHT22;27616;51.420;6.788;2023-02-15T11:11:37;18.10;62.10
41928;DHT22;27616;51.420;6.788;2023-02-15T11:17:02;19.00;61.30
41928;DHT22;27616;51.420;6.788;2023-02-15T11:19:35;19.20;60.70
41928;DHT22;27616;51.420;6.788;2023-02-15T11:22:05;19.60;59.60
41928;DHT22;27616;51.420;6.788;2023-02-15T11:24:39;19.60;58.80
41928;DHT22;27616;51.420;6.788;2023-02-15T11:27:20;19.40;58.60
41928;DHT22;27616;51.420;6.788;2023-02-15T11:30:06;18.40;60.60
41928;DHT22;27616;51.420;6.788;2023-02-15T11:32:44;18.30;60.80
41928;DHT22;27616;51.420;6.788;2023-02-15T11:42:47;19.20;59.00
41928;DHT22;27616;51.420;6.788;2023-02-15T11:47:46;19.50;58.00
41928;DHT22;27616;51.420;6.788;2023-02-15T11:50:20;19.50;57.80
41928;DHT22;27616;51.420;6.788;2023-02-15T11:52:52;19.60;57.50
41928;DHT22;27616;51.420;6.788;2023-02-15T11:55:21;18.70;59.00
41928;DHT22;27616;51.420;6.788;2023-02-15T12:00:56;18.00;61.50
41928;DHT22;27616;51.420;6.788;2023-02-15T12:06:05;17.40;61.80
41928;DHT22;27616;51.420;6.788;2023-02-15T12:08:39;17.90;61.10
41928;DHT22;27616;51.420;6.788;2023-02-15T12:11:15;17.80;60.30
41928;DHT22;27616;51.420;6.788;2023-02-15T12:14:01;17.70;60.50
41928;DHT22;27616;51.420;6.788;2023-02-15T12:16:28;18.20;59.50
41928;DHT22;27616;51.420;6.788;2023-02-15T12:18:59;18.20;59.50
41928;DHT22;27616;51.420;6.788;2023-02-15T12:21:28;18.50;59.60
41928;DHT22;27616;51.420;6.788;2023-02-15T12:24:03;19.10;59.00
41928;DHT22;27616;51.420;6.788;2023-02-15T12:26:38;18.80;58.30
41928;DHT22;27616;51.420;6.788;2023-02-15T12:29:16;18.20;59.30
41928;DHT22;27616;51.420;6.788;2023-02-15T12:31:50;18.30;59.30
41928;DHT22;27616;51.420;6.788;2023-02-15T12:34:22;18.10;60.20
41928;DHT22;27616;51.420;6.788;2023-02-15T12:36:51;18.30;60.20
41928;DHT22;27616;51.420;6.788;2023-02-15T12:39:28;19.10;58.80
41928;DHT22;27616;51.420;6.788;2023-02-15T12:44:25;20.20;55.50
41928;DHT22;27616;51.420;6.788;2023-02-15T12:47:00;20.50;54.80
41928;DHT22;27616;51.420;6.788;2023-02-15T12:49:28;21.10;54.80
41928;DHT22;27616;51.420;6.788;2023-02-15T12:52:05;21.60;53.40
41928;DHT22;27616;51.420;6.788;2023-02-15T12:54:41;21.60;52.70
41928;DHT22;27616;51.420;6.788;2023-02-15T12:57:31;20.70;55.00
41928;DHT22;27616;51.420;6.788;2023-02-15T12:59:58;21.50;53.70
41928;DHT22;27616;51.420;6.788;2023-02-15T13:05:26;22.80;50.20
41928;DHT22;27616;51.420;6.788;2023-02-15T13:08:09;21.80;51.20
41928;DHT22;27616;51.420;6.788;2023-02-15T13:10:42;20.40;54.10
41928;DHT22;27616;51.420;6.788;2023-02-15T13:13:18;20.10;54.60
41928;DHT22;27616;51.420;6.788;2023-02-15T13:15:52;19.40;55.60
41928;DHT22;27616;51.420;6.788;2023-02-15T13:18:45;19.10;57.30
41928;DHT22;27616;51.420;6.788;2023-02-15T13:21:15;19.60;56.10
41928;DHT22;27616;51.420;6.788;2023-02-15T13:23:48;20.40;55.10
41928;DHT22;27616;51.420;6.788;2023-02-15T13:26:18;20.90;53.30
41928;DHT22;27616;51.420;6.788;2023-02-15T13:28:48;20.60;53.60
41928;DHT22;27616;51.420;6.788;2023-02-15T13:31:18;20.40;54.40
41928;DHT22;27616;51.420;6.788;2023-02-15T13:33:50;21.20;53.00
41928;DHT22;27616;51.420;6.788;2023-02-15T13:38:55;21.90;51.30
41928;DHT22;27616;51.420;6.788;2023-02-15T13:41:34;23.00;51.30
41928;DHT22;27616;51.420;6.788;2023-02-15T13:44:41;23.60;49.30
41928;DHT22;27616;51.420;6.788;2023-02-15T13:50:10;23.20;49.40
41928;DHT22;27616;51.420;6.788;2023-02-15T14:01:31;23.50;47.90
41928;DHT22;27616;51.420;6.788;2023-02-15T14:15:48;24.20;46.50
41928;DHT22;27616;51.420;6.788;2023-02-15T14:23:38;22.50;48.50
41928;DHT22;27616;51.420;6.788;2023-02-15T14:26:09;21.40;50.10
41928;DHT22;27616;51.420;6.788;2023-02-15T14:31:14;19.70;52.90
41928;DHT22;27616;51.420;6.788;2023-02-15T14:33:47;18.90;54.40
41928;DHT22;27616;51.420;6.788;2023-02-15T14:36:17;18.00;55.30
41928;DHT22;27616;51.420;6.788;2023-02-15T14:38:55;17.40;56.20
41928;DHT22;27616;51.420;6.788;2023-02-15T14:41:43;17.00;56.80
41928;DHT22;27616;51.420;6.788;2023-02-15T14:47:07;16.20;59.50
41928;DHT22;27616;51.420;6.788;2023-02-15T14:49:37;15.80;60.10
41928;DHT22;27616;51.420;6.788;2023-02-15T14:52:04;15.70;60.80
41928;DHT22;27616;51.420;6.788;2023-02-15T15:01:57;15.10;62.60
41928;DHT22;27616;51.420;6.788;2023-02-15T15:04:31;14.90;63.10
41928;DHT22;27616;51.420;6.788;2023-02-15T15:09:39;14.80;65.40
41928;DHT22;27616;51.420;6.788;2023-02-15T15:14:50;14.60;66.40
41928;DHT22;27616;51.420;6.788;2023-02-15T15:20:00;14.50;68.00
41928;DHT22;27616;51.420;6.788;2023-02-15T15:22:28;14.40;67.30
41928;DHT22;27616;51.420;6.788;2023-02-15T15:27:59;14.10;68.20
41928;DHT22;27616;51.420;6.788;2023-02-15T15:33:01;14.00;69.10
41928;DHT22;27616;51.420;6.788;2023-02-15T15:36:01;14.00;70.30
41928;DHT22;27616;51.420;6.788;2023-02-15T15:41:40;13.90;70.60
41928;DHT22;27616;51.420;6.788;2023-02-15T15:47:25;13.70;72.10
41928;DHT22;27616;51.420;6.788;2023-02-15T15:49:58;13.60;72.60
41928;DHT22;27616;51.420;6.788;2023-02-15T15:52:26;13.20;74.10
41928;DHT22;27616;51.420;6.788;2023-02-15T15:54:57;13.20;75.20
41928;DHT22;27616;51.420;6.788;2023-02-15T15:57:31;13.10;75.70
41928;DHT22;27616;51.420;6.788;2023-02-15T15:59:58;13.10;76.20
41928;DHT22;27616;51.420;6.788;2023-02-15T16:02:26;13.00;77.00
41928;DHT22;27616;51.420;6.788;2023-02-15T16:04:52;12.90;77.30
41928;DHT22;27616;51.420;6.788;2023-02-15T16:10:03;12.80;78.30
41928;DHT22;27616;51.420;6.788;2023-02-15T16:12:37;12.70;78.50
41928;DHT22;27616;51.420;6.788;2023-02-15T16:15:28;12.60;79.60
41928;DHT22;27616;51.420;6.788;2023-02-15T16:17:57;12.50;80.00
41928;DHT22;27616;51.420;6.788;2023-02-15T16:20:29;12.30;80.50
41928;DHT22;27616;51.420;6.788;2023-02-15T16:28:11;12.10;82.80
41928;DHT22;27616;51.420;6.788;2023-02-15T16:30:38;12.00;83.90
41928;DHT22;27616;51.420;6.788;2023-02-15T16:33:14;11.90;84.40
41928;DHT22;27616;51.420;6.788;2023-02-15T16:35:53;11.80;85.50
41928;DHT22;27616;51.420;6.788;2023-02-15T16:41:22;11.70;87.00
41928;DHT22;27616;51.420;6.788;2023-02-15T16:43:49;11.50;88.30
41928;DHT22;27616;51.420;6.788;2023-02-15T16:46:22;11.40;89.50
41928;DHT22;27616;51.420;6.788;2023-02-15T16:48:51;11.30;89.70
41928;DHT22;27616;51.420;6.788;2023-02-15T16:51:22;11.20;90.20
41928;DHT22;27616;51.420;6.788;2023-02-15T16:53:49;11.10;90.70
41928;DHT22;27616;51.420;6.788;2023-02-15T16:56:26;11.00;91.30
41928;DHT22;27616;51.420;6.788;2023-02-15T16:58:54;10.90;91.80
41928;DHT22;27616;51.420;6.788;2023-02-15T17:01:23;10.80;92.40
41928;DHT22;27616;51.420;6.788;2023-02-15T17:03:50;10.80;92.60
41928;DHT22;27616;51.420;6.788;2023-02-15T17:06:25;10.70;93.10
41928;DHT22;27616;51.420;6.788;2023-02-15T17:08:52;10.60;93.20
41928;DHT22;27616;51.420;6.788;2023-02-15T17:11:19;10.60;93.70
41928;DHT22;27616;51.420;6.788;2023-02-15T17:16:41;10.60;94.30
41928;DHT22;27616;51.420;6.788;2023-02-15T17:21:46;10.40;95.10
41928;DHT22;27616;51.420;6.788;2023-02-15T17:24:19;10.40;95.30
41928;DHT22;27616;51.420;6.788;2023-02-15T17:26:54;10.40;95.40
41928;DHT22;27616;51.420;6.788;2023-02-15T17:31:54;10.30;96.60
41928;DHT22;27616;51.420;6.788;2023-02-15T17:37:31;10.20;96.60
41928;DHT22;27616;51.420;6.788;2023-02-15T17:39:58;10.20;96.90
41928;DHT22;27616;51.420;6.788;2023-02-15T17:42:25;10.10;97.10
41928;DHT22;27616;51.420;6.788;2023-02-15T17:44:51;10.10;97.40
41928;DHT22;27616;51.420;6.788;2023-02-15T17:47:19;10.10;97.70
41928;DHT22;27616;51.420;6.788;2023-02-15T17:49:47;10.10;97.80
41928;DHT22;27616;51.420;6.788;2023-02-15T17:52:15;10.10;97.80
41928;DHT22;27616;51.420;6.788;2023-02-15T17:54:42;10.10;98.00
41928;DHT22;27616;51.420;6.788;2023-02-15T17:57:28;10.10;98.30
41928;DHT22;27616;51.420;6.788;2023-02-15T17:59:54;10.10;98.40
41928;DHT22;27616;51.420;6.788;2023-02-15T18:02:38;10.00;98.60
41928;DHT22;27616;51.420;6.788;2023-02-15T18:05:22;10.00;98.70
41928;DHT22;27616;51.420;6.788;2023-02-15T18:08:11;10.00;99.00
41928;DHT22;27616;51.420;6.788;2023-02-15T18:10:56;10.00;99.10
41928;DHT22;27616;51.420;6.788;2023-02-15T18:13:40;9.90;99.30
41928;DHT22;27616;51.420;6.788;2023-02-15T18:16:14;9.90;99.40
41928;DHT22;27616;51.420;6.788;2023-02-15T18:18:41;9.90;99.70
41928;DHT22;27616;51.420;6.788;2023-02-15T18:21:07;9.90;99.60
41928;DHT22;27616;51.420;6.788;2023-02-15T18:23:35;9.80;99.80
41928;DHT22;27616;51.420;6.788;2023-02-15T18:26:01;9.80;99.80
41928;DHT22;27616;51.420;6.788;2023-02-15T18:28:27;9.80;99.90
41928;DHT22;27616;51.420;6.788;2023-02-15T18:30:53;9.70;99.90
41928;DHT22;27616;51.420;6.788;2023-02-15T18:33:32;9.70;99.90
41928;DHT22;27616;51.420;6.788;2023-02-15T18:36:01;9.70;99.90
41928;DHT22;27616;51.420;6.788;2023-02-15T18:38:27;9.60;99.90
41928;DHT22;27616;51.420;6.788;2023-02-15T18:40:53;9.50;99.90
41928;DHT22;27616;51.420;6.788;2023-02-15T18:43:19;9.50;99.90
41928;DHT22;27616;51.420;6.788;2023-02-15T18:45:45;9.50;99.90
41928;DHT22;27616;51.420;6.788;2023-02-15T18:48:10;9.50;99.90
41928;DHT22;27616;51.420;6.788;2023-02-15T18:50:37;9.50;99.90
41928;DHT22;27616;51.420;6.788;2023-02-15T18:53:05;9.30;99.90
41928;DHT22;27616;51.420;6.788;2023-02-15T18:55:31;9.30;99.90
41928;DHT22;27616;51.420;6.788;2023-02-15T18:57:58;9.30;99.90
41928;DHT22;27616;51.420;6.788;2023-02-15T19:00:27;9.30;99.90
41928;DHT22;27616;51.420;6.788;2023-02-15T19:02:54;9.20;99.90
41928;DHT22;27616;51.420;6.788;2023-02-15T19:05:20;9.20;99.90
41928;DHT22;27616;51.420;6.788;2023-02-15T19:07:47;9.10;99.90
41928;DHT22;27616;51.420;6.788;2023-02-15T19:12:44;9.00;99.90
41928;DHT22;27616;51.420;6.788;2023-02-15T19:15:17;9.10;99.90
41928;DHT22;27616;51.420;6.788;2023-02-15T19:17:44;9.00;99.90
41928;DHT22;27616;51.420;6.788;2023-02-15T19:23:03;8.90;99.90
41928;DHT22;27616;51.420;6.788;2023-02-15T19:25:31;8.90;99.90
41928;DHT22;27616;51.420;6.788;2023-02-15T19:27:58;8.80;99.90
41928;DHT22;27616;51.420;6.788;2023-02-15T19:30:27;8.90;99.90
41928;DHT22;27616;51.420;6.788;2023-02-15T19:32:55;8.80;99.90
41928;DHT22;27616;51.420;6.788;2023-02-15T19:35:23;8.80;99.90